sensor_id;sensor_type;location;lat;lon;timestamp;temperature;humidity
79356;SHT31;68825;51.978;5.654;2023-04-15T00:01:59;12.4;49.9
79356;SHT31;68825;51.978;5.654;2023-04-15T00:04:30;12.4;49.6
79356;SHT31;68825;51.978;5.654;2023-04-15T00:07:03;12.3;50.2
79356;SHT31;68825;51.978;5.654;2023-04-15T00:09:31;12.3;49.3
79356;SHT31;68825;51.978;5.654;2023-04-15T00:12:00;12.3;49.2
79356;SHT31;68825;51.978;5.654;2023-04-15T00:14:28;12.3;49.4
79356;SHT31;68825;51.978;5.654;2023-04-15T00:16:57;12.3;49.3
79356;SHT31;68825;51.978;5.654;2023-04-15T00:19:26;12.3;49.2
79356;SHT31;68825;51.978;5.654;2023-04-15T00:21:56;12.2;49.2
79356;SHT31;68825;51.978;5.654;2023-04-15T00:24:25;12.2;49.7
79356;SHT31;68825;51.978;5.654;2023-04-15T00:26:54;12.2;49.7
79356;SHT31;68825;51.978;5.654;2023-04-15T00:29:23;12.2;50.2
79356;SHT31;68825;51.978;5.654;2023-04-15T00:31:51;12.2;49.8
79356;SHT31;68825;51.978;5.654;2023-04-15T00:34:20;12.2;49.7
79356;SHT31;68825;51.978;5.654;2023-04-15T00:36:49;12.1;50.2
79356;SHT31;68825;51.978;5.654;2023-04-15T00:39:18;12.1;51.4
79356;SHT31;68825;51.978;5.654;2023-04-15T00:41:48;12.1;50.2
79356;SHT31;68825;51.978;5.654;2023-04-15T00:44:16;12.1;49.8
79356;SHT31;68825;51.978;5.654;2023-04-15T00:46:47;12.1;50.0
79356;SHT31;68825;51.978;5.654;2023-04-15T00:49:20;12.0;50.1
79356;SHT31;68825;51.978;5.654;2023-04-15T00:51:51;12.0;50.5
79356;SHT31;68825;51.978;5.654;2023-04-15T00:54:20;11.9;50.9
79356;SHT31;68825;51.978;5.654;2023-04-15T00:56:48;11.9;50.8
79356;SHT31;68825;51.978;5.654;2023-04-15T00:59:18;11.8;51.0
79356;SHT31;68825;51.978;5.654;2023-04-15T01:01:47;11.8;51.6
79356;SHT31;68825;51.978;5.654;2023-04-15T01:04:19;11.8;51.4
79356;SHT31;68825;51.978;5.654;2023-04-15T01:06:47;11.7;51.6
79356;SHT31;68825;51.978;5.654;2023-04-15T01:09:16;11.7;51.5
79356;SHT31;68825;51.978;5.654;2023-04-15T01:11:46;11.7;51.6
79356;SHT31;68825;51.978;5.654;2023-04-15T01:14:14;11.6;51.8
79356;SHT31;68825;51.978;5.654;2023-04-15T01:16:45;11.6;51.9
79356;SHT31;68825;51.978;5.654;2023-04-15T01:19:16;11.5;52.2
79356;SHT31;68825;51.978;5.654;2023-04-15T01:21:45;11.4;52.1
79356;SHT31;68825;51.978;5.654;2023-04-15T01:24:17;11.4;52.2
79356;SHT31;68825;51.978;5.654;2023-04-15T01:26:47;11.3;52.4
79356;SHT31;68825;51.978;5.654;2023-04-15T01:29:15;11.3;52.7
79356;SHT31;68825;51.978;5.654;2023-04-15T01:31:50;11.2;52.7
79356;SHT31;68825;51.978;5.654;2023-04-15T01:34:20;11.2;53.1
79356;SHT31;68825;51.978;5.654;2023-04-15T01:36:49;11.1;53.3
79356;SHT31;68825;51.978;5.654;2023-04-15T01:39:20;11.1;53.2
79356;SHT31;68825;51.978;5.654;2023-04-15T01:41:48;11.1;53.2
79356;SHT31;68825;51.978;5.654;2023-04-15T01:44:17;11.1;53.3
79356;SHT31;68825;51.978;5.654;2023-04-15T01:46:47;11.0;53.9
79356;SHT31;68825;51.978;5.654;2023-04-15T01:49:15;11.0;53.6
79356;SHT31;68825;51.978;5.654;2023-04-15T01:51:44;11.0;53.6
79356;SHT31;68825;51.978;5.654;2023-04-15T01:54:12;10.9;53.7
79356;SHT31;68825;51.978;5.654;2023-04-15T01:56:41;10.9;53.8
79356;SHT31;68825;51.978;5.654;2023-04-15T01:59:10;10.9;53.9
79356;SHT31;68825;51.978;5.654;2023-04-15T02:01:39;10.8;54.2
79356;SHT31;68825;51.978;5.654;2023-04-15T02:04:07;10.8;54.3
79356;SHT31;68825;51.978;5.654;2023-04-15T02:06:41;10.8;54.4
79356;SHT31;68825;51.978;5.654;2023-04-15T02:09:11;10.8;54.5
79356;SHT31;68825;51.978;5.654;2023-04-15T02:11:40;10.8;54.7
79356;SHT31;68825;51.978;5.654;2023-04-15T02:14:08;10.7;54.5
79356;SHT31;68825;51.978;5.654;2023-04-15T02:16:37;10.7;54.7
79356;SHT31;68825;51.978;5.654;2023-04-15T02:19:05;10.7;54.8
79356;SHT31;68825;51.978;5.654;2023-04-15T02:21:36;10.7;55.0
79356;SHT31;68825;51.978;5.654;2023-04-15T02:24:05;10.6;54.9
79356;SHT31;68825;51.978;5.654;2023-04-15T02:26:34;10.6;55.0
79356;SHT31;68825;51.978;5.654;2023-04-15T02:29:03;10.6;55.1
79356;SHT31;68825;51.978;5.654;2023-04-15T02:31:31;10.6;55.3
79356;SHT31;68825;51.978;5.654;2023-04-15T02:34:03;10.5;55.6
79356;SHT31;68825;51.978;5.654;2023-04-15T02:36:34;10.5;56.6
79356;SHT31;68825;51.978;5.654;2023-04-15T02:39:02;10.5;56.0
79356;SHT31;68825;51.978;5.654;2023-04-15T02:41:31;10.5;56.2
79356;SHT31;68825;51.978;5.654;2023-04-15T02:44:00;10.4;57.3
79356;SHT31;68825;51.978;5.654;2023-04-15T02:46:29;10.4;56.1
79356;SHT31;68825;51.978;5.654;2023-04-15T02:48:57;10.4;56.0
79356;SHT31;68825;51.978;5.654;2023-04-15T02:51:29;10.3;56.3
79356;SHT31;68825;51.978;5.654;2023-04-15T02:53:58;10.3;56.5
79356;SHT31;68825;51.978;5.654;2023-04-15T02:56:27;10.3;56.5
79356;SHT31;68825;51.978;5.654;2023-04-15T02:58:57;10.3;56.5
79356;SHT31;68825;51.978;5.654;2023-04-15T03:01:28;10.2;56.9
79356;SHT31;68825;51.978;5.654;2023-04-15T03:03:56;10.2;56.9
79356;SHT31;68825;51.978;5.654;2023-04-15T03:06:25;10.2;56.9
79356;SHT31;68825;51.978;5.654;2023-04-15T03:08:55;10.2;57.1
79356;SHT31;68825;51.978;5.654;2023-04-15T03:11:27;10.1;57.3
79356;SHT31;68825;51.978;5.654;2023-04-15T03:13:57;10.1;57.3
79356;SHT31;68825;51.978;5.654;2023-04-15T03:16:26;10.1;57.5
79356;SHT31;68825;51.978;5.654;2023-04-15T03:18:54;10.1;57.6
79356;SHT31;68825;51.978;5.654;2023-04-15T03:21:23;10.0;57.8
79356;SHT31;68825;51.978;5.654;2023-04-15T03:23:52;10.0;58.0
79356;SHT31;68825;51.978;5.654;2023-04-15T03:26:25;9.9;58.0
79356;SHT31;68825;51.978;5.654;2023-04-15T03:28:54;9.9;58.4
79356;SHT31;68825;51.978;5.654;2023-04-15T03:31:23;9.8;58.7
79356;SHT31;68825;51.978;5.654;2023-04-15T03:33:52;9.8;58.9
79356;SHT31;68825;51.978;5.654;2023-04-15T03:36:21;9.8;59.1
79356;SHT31;68825;51.978;5.654;2023-04-15T03:38:49;9.7;59.2
79356;SHT31;68825;51.978;5.654;2023-04-15T03:41:18;9.7;59.6
79356;SHT31;68825;51.978;5.654;2023-04-15T03:43:47;9.7;59.7
79356;SHT31;68825;51.978;5.654;2023-04-15T03:46:17;9.6;59.9
79356;SHT31;68825;51.978;5.654;2023-04-15T03:48:47;9.6;60.2
79356;SHT31;68825;51.978;5.654;2023-04-15T03:51:16;9.6;60.1
79356;SHT31;68825;51.978;5.654;2023-04-15T03:53:44;9.6;60.3
79356;SHT31;68825;51.978;5.654;2023-04-15T03:56:13;9.5;60.6
79356;SHT31;68825;51.978;5.654;2023-04-15T03:58:41;9.5;60.6
79356;SHT31;68825;51.978;5.654;2023-04-15T04:01:11;9.5;60.8
79356;SHT31;68825;51.978;5.654;2023-04-15T04:03:40;9.5;60.9
79356;SHT31;68825;51.978;5.654;2023-04-15T04:06:09;9.5;61.2
79356;SHT31;68825;51.978;5.654;2023-04-15T04:08:38;9.5;61.2
79356;SHT31;68825;51.978;5.654;2023-04-15T04:11:08;9.5;61.8
79356;SHT31;68825;51.978;5.654;2023-04-15T04:13:37;9.5;61.2
79356;SHT31;68825;51.978;5.654;2023-04-15T04:16:07;9.5;61.3
79356;SHT31;68825;51.978;5.654;2023-04-15T04:18:36;9.5;61.2
79356;SHT31;68825;51.978;5.654;2023-04-15T04:21:05;9.5;62.2
79356;SHT31;68825;51.978;5.654;2023-04-15T04:23:33;9.5;61.4
79356;SHT31;68825;51.978;5.654;2023-04-15T04:26:02;9.5;61.5
79356;SHT31;68825;51.978;5.654;2023-04-15T04:28:32;9.5;61.4
79356;SHT31;68825;51.978;5.654;2023-04-15T04:31:04;9.5;61.2
79356;SHT31;68825;51.978;5.654;2023-04-15T04:33:33;9.5;61.4
79356;SHT31;68825;51.978;5.654;2023-04-15T04:36:02;9.5;61.7
79356;SHT31;68825;51.978;5.654;2023-04-15T04:38:31;9.5;62.2
79356;SHT31;68825;51.978;5.654;2023-04-15T04:40:59;9.5;61.5
79356;SHT31;68825;51.978;5.654;2023-04-15T04:43:28;9.5;61.6
79356;SHT31;68825;51.978;5.654;2023-04-15T04:45:57;9.4;61.8
79356;SHT31;68825;51.978;5.654;2023-04-15T04:48:25;9.4;62.0
79356;SHT31;68825;51.978;5.654;2023-04-15T04:50:55;9.4;62.3
79356;SHT31;68825;51.978;5.654;2023-04-15T04:53:24;9.3;62.7
79356;SHT31;68825;51.978;5.654;2023-04-15T04:55:53;9.3;62.9
79356;SHT31;68825;51.978;5.654;2023-04-15T04:58:21;9.3;62.8
79356;SHT31;68825;51.978;5.654;2023-04-15T05:00:50;9.2;63.0
79356;SHT31;68825;51.978;5.654;2023-04-15T05:03:19;9.2;63.2
79356;SHT31;68825;51.978;5.654;2023-04-15T05:05:47;9.2;63.2
79356;SHT31;68825;51.978;5.654;2023-04-15T05:08:17;9.2;63.2
79356;SHT31;68825;51.978;5.654;2023-04-15T05:10:45;9.2;63.7
79356;SHT31;68825;51.978;5.654;2023-04-15T05:13:16;9.2;63.6
79356;SHT31;68825;51.978;5.654;2023-04-15T05:15:47;9.2;63.7
79356;SHT31;68825;51.978;5.654;2023-04-15T05:18:15;9.2;63.8
79356;SHT31;68825;51.978;5.654;2023-04-15T05:20:44;9.1;63.6
79356;SHT31;68825;51.978;5.654;2023-04-15T05:23:12;9.1;63.9
79356;SHT31;68825;51.978;5.654;2023-04-15T05:25:41;9.1;64.2
79356;SHT31;68825;51.978;5.654;2023-04-15T05:28:09;9.1;64.2
79356;SHT31;68825;51.978;5.654;2023-04-15T05:30:38;9.1;64.4
79356;SHT31;68825;51.978;5.654;2023-04-15T05:33:07;9.1;64.4
79356;SHT31;68825;51.978;5.654;2023-04-15T05:35:36;9.1;64.6
79356;SHT31;68825;51.978;5.654;2023-04-15T05:38:05;9.1;64.7
79356;SHT31;68825;51.978;5.654;2023-04-15T05:40:33;9.1;64.6
79356;SHT31;68825;51.978;5.654;2023-04-15T05:43:02;9.1;64.9
79356;SHT31;68825;51.978;5.654;2023-04-15T05:45:30;9.1;64.8
79356;SHT31;68825;51.978;5.654;2023-04-15T05:48:03;9.2;65.1
79356;SHT31;68825;51.978;5.654;2023-04-15T05:50:32;9.2;65.7
79356;SHT31;68825;51.978;5.654;2023-04-15T05:53:02;9.2;65.4
79356;SHT31;68825;51.978;5.654;2023-04-15T05:55:30;9.2;65.6
79356;SHT31;68825;51.978;5.654;2023-04-15T05:57:59;9.2;65.8
79356;SHT31;68825;51.978;5.654;2023-04-15T06:00:29;9.2;66.4
79356;SHT31;68825;51.978;5.654;2023-04-15T06:02:58;9.2;66.2
79356;SHT31;68825;51.978;5.654;2023-04-15T06:05:27;9.3;66.3
79356;SHT31;68825;51.978;5.654;2023-04-15T06:07:55;9.3;66.2
79356;SHT31;68825;51.978;5.654;2023-04-15T06:10:24;9.4;66.0
79356;SHT31;68825;51.978;5.654;2023-04-15T06:12:55;9.4;66.2
79356;SHT31;68825;51.978;5.654;2023-04-15T06:15:24;9.5;66.6
79356;SHT31;68825;51.978;5.654;2023-04-15T06:17:52;9.6;65.9
79356;SHT31;68825;51.978;5.654;2023-04-15T06:20:21;9.6;66.3
79356;SHT31;68825;51.978;5.654;2023-04-15T06:22:50;9.7;65.6
79356;SHT31;68825;51.978;5.654;2023-04-15T06:25:19;9.8;65.4
79356;SHT31;68825;51.978;5.654;2023-04-15T06:27:47;9.9;65.3
79356;SHT31;68825;51.978;5.654;2023-04-15T06:30:16;9.9;65.0
79356;SHT31;68825;51.978;5.654;2023-04-15T06:32:45;10.0;65.1
79356;SHT31;68825;51.978;5.654;2023-04-15T06:35:14;10.1;65.8
79356;SHT31;68825;51.978;5.654;2023-04-15T06:37:43;10.1;65.0
79356;SHT31;68825;51.978;5.654;2023-04-15T06:40:12;10.2;65.4
79356;SHT31;68825;51.978;5.654;2023-04-15T06:42:42;10.2;65.1
79356;SHT31;68825;51.978;5.654;2023-04-15T06:45:11;10.3;64.9
79356;SHT31;68825;51.978;5.654;2023-04-15T06:47:40;10.3;64.7
79356;SHT31;68825;51.978;5.654;2023-04-15T06:50:09;10.3;65.2
79356;SHT31;68825;51.978;5.654;2023-04-15T06:52:39;10.4;65.2
79356;SHT31;68825;51.978;5.654;2023-04-15T06:55:08;10.4;65.5
79356;SHT31;68825;51.978;5.654;2023-04-15T06:57:37;10.4;65.1
79356;SHT31;68825;51.978;5.654;2023-04-15T07:00:07;10.5;65.5
79356;SHT31;68825;51.978;5.654;2023-04-15T07:02:36;10.6;64.7
79356;SHT31;68825;51.978;5.654;2023-04-15T07:05:06;10.6;65.2
79356;SHT31;68825;51.978;5.654;2023-04-15T07:07:35;10.7;64.7
79356;SHT31;68825;51.978;5.654;2023-04-15T07:10:04;10.7;63.8
79356;SHT31;68825;51.978;5.654;2023-04-15T07:12:33;10.8;63.9
79356;SHT31;68825;51.978;5.654;2023-04-15T07:15:02;10.8;63.4
79356;SHT31;68825;51.978;5.654;2023-04-15T07:17:30;10.9;63.5
79356;SHT31;68825;51.978;5.654;2023-04-15T07:20:00;10.9;61.9
79356;SHT31;68825;51.978;5.654;2023-04-15T07:22:30;10.9;62.0
79356;SHT31;68825;51.978;5.654;2023-04-15T07:24:59;11.0;61.6
79356;SHT31;68825;51.978;5.654;2023-04-15T07:27:28;11.0;61.6
79356;SHT31;68825;51.978;5.654;2023-04-15T07:29:57;11.0;60.4
79356;SHT31;68825;51.978;5.654;2023-04-15T07:32:25;11.0;60.5
79356;SHT31;68825;51.978;5.654;2023-04-15T07:34:54;11.1;60.1
79356;SHT31;68825;51.978;5.654;2023-04-15T07:37:23;11.1;59.3
79356;SHT31;68825;51.978;5.654;2023-04-15T07:39:51;11.1;59.1
79356;SHT31;68825;51.978;5.654;2023-04-15T07:42:20;11.1;59.1
79356;SHT31;68825;51.978;5.654;2023-04-15T07:44:50;11.2;59.4
79356;SHT31;68825;51.978;5.654;2023-04-15T07:47:19;11.2;59.5
79356;SHT31;68825;51.978;5.654;2023-04-15T07:49:47;11.3;57.8
79356;SHT31;68825;51.978;5.654;2023-04-15T07:52:17;11.3;58.5
79356;SHT31;68825;51.978;5.654;2023-04-15T07:54:45;11.3;58.0
79356;SHT31;68825;51.978;5.654;2023-04-15T07:57:14;11.4;58.0
79356;SHT31;68825;51.978;5.654;2023-04-15T07:59:43;11.4;58.9
79356;SHT31;68825;51.978;5.654;2023-04-15T08:02:14;11.5;58.3
79356;SHT31;68825;51.978;5.654;2023-04-15T08:04:42;11.5;57.5
79356;SHT31;68825;51.978;5.654;2023-04-15T08:07:11;11.6;56.8
79356;SHT31;68825;51.978;5.654;2023-04-15T08:09:39;11.6;57.5
79356;SHT31;68825;51.978;5.654;2023-04-15T08:12:08;11.6;57.6
79356;SHT31;68825;51.978;5.654;2023-04-15T08:14:39;11.6;56.5
79356;SHT31;68825;51.978;5.654;2023-04-15T08:17:07;11.6;56.5
79356;SHT31;68825;51.978;5.654;2023-04-15T08:19:36;11.6;56.5
79356;SHT31;68825;51.978;5.654;2023-04-15T08:22:06;11.6;56.8
79356;SHT31;68825;51.978;5.654;2023-04-15T08:24:35;11.6;57.7
79356;SHT31;68825;51.978;5.654;2023-04-15T08:27:04;11.6;57.2
79356;SHT31;68825;51.978;5.654;2023-04-15T08:29:33;11.6;57.1
79356;SHT31;68825;51.978;5.654;2023-04-15T08:32:02;11.6;57.1
79356;SHT31;68825;51.978;5.654;2023-04-15T08:34:31;11.7;56.7
79356;SHT31;68825;51.978;5.654;2023-04-15T08:37:00;11.7;56.8
79356;SHT31;68825;51.978;5.654;2023-04-15T08:39:30;11.7;56.5
79356;SHT31;68825;51.978;5.654;2023-04-15T08:42:01;11.7;57.4
79356;SHT31;68825;51.978;5.654;2023-04-15T08:44:34;11.7;57.2
79356;SHT31;68825;51.978;5.654;2023-04-15T08:47:07;11.7;57.2
79356;SHT31;68825;51.978;5.654;2023-04-15T08:49:39;11.8;57.3
79356;SHT31;68825;51.978;5.654;2023-04-15T08:52:08;11.8;57.4
79356;SHT31;68825;51.978;5.654;2023-04-15T08:54:37;11.9;56.8
79356;SHT31;68825;51.978;5.654;2023-04-15T08:57:06;11.9;56.8
79356;SHT31;68825;51.978;5.654;2023-04-15T08:59:37;12.0;57.1
79356;SHT31;68825;51.978;5.654;2023-04-15T09:02:06;12.1;56.3
79356;SHT31;68825;51.978;5.654;2023-04-15T09:04:37;12.1;56.6
79356;SHT31;68825;51.978;5.654;2023-04-15T09:07:06;12.2;56.8
79356;SHT31;68825;51.978;5.654;2023-04-15T09:09:35;12.2;56.3
79356;SHT31;68825;51.978;5.654;2023-04-15T09:12:06;12.3;55.5
79356;SHT31;68825;51.978;5.654;2023-04-15T09:14:36;12.3;56.4
79356;SHT31;68825;51.978;5.654;2023-04-15T09:17:05;12.4;56.9
79356;SHT31;68825;51.978;5.654;2023-04-15T09:19:37;12.4;56.5
79356;SHT31;68825;51.978;5.654;2023-04-15T09:22:06;12.5;55.7
79356;SHT31;68825;51.978;5.654;2023-04-15T09:24:36;12.5;56.4
79356;SHT31;68825;51.978;5.654;2023-04-15T09:27:06;12.6;55.8
79356;SHT31;68825;51.978;5.654;2023-04-15T09:29:35;12.6;54.8
79356;SHT31;68825;51.978;5.654;2023-04-15T09:32:11;12.7;55.4
79356;SHT31;68825;51.978;5.654;2023-04-15T09:34:41;12.7;55.2
79356;SHT31;68825;51.978;5.654;2023-04-15T09:37:13;12.8;56.1
79356;SHT31;68825;51.978;5.654;2023-04-15T09:39:48;12.8;54.9
79356;SHT31;68825;51.978;5.654;2023-04-15T09:42:18;12.9;55.4
79356;SHT31;68825;51.978;5.654;2023-04-15T09:44:49;13.0;53.0
79356;SHT31;68825;51.978;5.654;2023-04-15T09:47:28;13.1;51.6
79356;SHT31;68825;51.978;5.654;2023-04-15T09:49:58;13.1;52.2
79356;SHT31;68825;51.978;5.654;2023-04-15T09:52:28;13.2;51.1
79356;SHT31;68825;51.978;5.654;2023-04-15T09:54:58;13.2;51.0
79356;SHT31;68825;51.978;5.654;2023-04-15T09:57:35;13.3;52.2
79356;SHT31;68825;51.978;5.654;2023-04-15T10:00:06;13.3;52.9
79356;SHT31;68825;51.978;5.654;2023-04-15T10:02:37;13.4;53.3
79356;SHT31;68825;51.978;5.654;2023-04-15T10:05:10;13.5;51.8
79356;SHT31;68825;51.978;5.654;2023-04-15T10:07:39;13.5;52.3
79356;SHT31;68825;51.978;5.654;2023-04-15T10:10:10;13.6;51.6
79356;SHT31;68825;51.978;5.654;2023-04-15T10:12:40;13.6;51.2
79356;SHT31;68825;51.978;5.654;2023-04-15T10:15:14;13.6;51.5
79356;SHT31;68825;51.978;5.654;2023-04-15T10:17:45;13.6;52.8
79356;SHT31;68825;51.978;5.654;2023-04-15T10:20:16;13.6;53.3
79356;SHT31;68825;51.978;5.654;2023-04-15T10:22:47;13.7;52.0
79356;SHT31;68825;51.978;5.654;2023-04-15T10:25:17;13.7;51.5
79356;SHT31;68825;51.978;5.654;2023-04-15T10:27:46;13.7;51.2
79356;SHT31;68825;51.978;5.654;2023-04-15T10:30:17;13.8;51.8
79356;SHT31;68825;51.978;5.654;2023-04-15T10:32:48;13.7;52.0
79356;SHT31;68825;51.978;5.654;2023-04-15T10:35:19;13.7;51.9
79356;SHT31;68825;51.978;5.654;2023-04-15T10:37:49;13.8;53.3
79356;SHT31;68825;51.978;5.654;2023-04-15T10:40:25;13.8;51.8
79356;SHT31;68825;51.978;5.654;2023-04-15T10:42:56;13.8;52.4
79356;SHT31;68825;51.978;5.654;2023-04-15T10:45:26;13.8;51.7
79356;SHT31;68825;51.978;5.654;2023-04-15T10:47:57;13.8;52.0
79356;SHT31;68825;51.978;5.654;2023-04-15T10:50:30;13.8;52.3
79356;SHT31;68825;51.978;5.654;2023-04-15T10:53:02;13.8;52.6
79356;SHT31;68825;51.978;5.654;2023-04-15T10:55:33;13.8;53.1
79356;SHT31;68825;51.978;5.654;2023-04-15T10:58:03;13.9;53.1
79356;SHT31;68825;51.978;5.654;2023-04-15T11:00:36;13.9;52.1
79356;SHT31;68825;51.978;5.654;2023-04-15T11:03:07;14.0;52.2
79356;SHT31;68825;51.978;5.654;2023-04-15T11:05:50;14.1;52.0
79356;SHT31;68825;51.978;5.654;2023-04-15T11:08:53;14.2;53.6
79356;SHT31;68825;51.978;5.654;2023-04-15T11:12:05;14.3;51.6
79356;SHT31;68825;51.978;5.654;2023-04-15T11:14:39;14.4;50.7
79356;SHT31;68825;51.978;5.654;2023-04-15T11:17:08;14.5;51.2
79356;SHT31;68825;51.978;5.654;2023-04-15T11:19:38;14.5;50.0
79356;SHT31;68825;51.978;5.654;2023-04-15T11:22:10;14.5;50.8
79356;SHT31;68825;51.978;5.654;2023-04-15T11:24:48;14.5;50.0
79356;SHT31;68825;51.978;5.654;2023-04-15T11:27:23;14.5;50.2
79356;SHT31;68825;51.978;5.654;2023-04-15T11:29:52;14.5;49.4
79356;SHT31;68825;51.978;5.654;2023-04-15T11:32:22;14.5;49.7
79356;SHT31;68825;51.978;5.654;2023-04-15T11:34:50;14.6;50.0
79356;SHT31;68825;51.978;5.654;2023-04-15T11:37:29;14.6;50.0
79356;SHT31;68825;51.978;5.654;2023-04-15T11:40:01;14.6;49.5
79356;SHT31;68825;51.978;5.654;2023-04-15T11:42:30;14.6;50.2
79356;SHT31;68825;51.978;5.654;2023-04-15T11:45:07;14.7;48.2
79356;SHT31;68825;51.978;5.654;2023-04-15T11:47:37;14.7;49.3
79356;SHT31;68825;51.978;5.654;2023-04-15T11:50:18;14.7;49.0
79356;SHT31;68825;51.978;5.654;2023-04-15T11:52:57;14.7;48.8
79356;SHT31;68825;51.978;5.654;2023-04-15T11:55:28;14.7;49.6
79356;SHT31;68825;51.978;5.654;2023-04-15T11:58:14;14.7;49.6
79356;SHT31;68825;51.978;5.654;2023-04-15T12:00:48;14.7;49.0
79356;SHT31;68825;51.978;5.654;2023-04-15T12:03:21;14.7;49.2
79356;SHT31;68825;51.978;5.654;2023-04-15T12:06:07;14.8;49.9
79356;SHT31;68825;51.978;5.654;2023-04-15T12:08:51;14.8;49.0
79356;SHT31;68825;51.978;5.654;2023-04-15T12:11:26;14.9;47.8
79356;SHT31;68825;51.978;5.654;2023-04-15T12:13:56;14.9;47.9
79356;SHT31;68825;51.978;5.654;2023-04-15T12:16:27;14.9;47.9
79356;SHT31;68825;51.978;5.654;2023-04-15T12:18:57;14.9;48.5
79356;SHT31;68825;51.978;5.654;2023-04-15T12:21:31;14.9;48.5
79356;SHT31;68825;51.978;5.654;2023-04-15T12:24:02;14.9;48.1
79356;SHT31;68825;51.978;5.654;2023-04-15T12:26:34;14.9;48.6
79356;SHT31;68825;51.978;5.654;2023-04-15T12:29:05;14.9;49.2
79356;SHT31;68825;51.978;5.654;2023-04-15T12:31:35;14.9;49.9
79356;SHT31;68825;51.978;5.654;2023-04-15T12:34:07;15.0;49.7
79356;SHT31;68825;51.978;5.654;2023-04-15T12:36:35;15.0;48.7
79356;SHT31;68825;51.978;5.654;2023-04-15T12:39:04;15.0;48.6
79356;SHT31;68825;51.978;5.654;2023-04-15T12:41:33;15.0;50.0
79356;SHT31;68825;51.978;5.654;2023-04-15T12:44:04;15.0;49.8
79356;SHT31;68825;51.978;5.654;2023-04-15T12:46:34;15.0;49.2
79356;SHT31;68825;51.978;5.654;2023-04-15T12:49:03;15.0;48.5
79356;SHT31;68825;51.978;5.654;2023-04-15T12:51:32;15.0;48.8
79356;SHT31;68825;51.978;5.654;2023-04-15T12:54:01;14.9;48.2
79356;SHT31;68825;51.978;5.654;2023-04-15T12:56:30;14.9;48.1
79356;SHT31;68825;51.978;5.654;2023-04-15T12:58:58;14.9;48.2
79356;SHT31;68825;51.978;5.654;2023-04-15T13:01:27;14.8;47.7
79356;SHT31;68825;51.978;5.654;2023-04-15T13:03:55;14.8;48.8
79356;SHT31;68825;51.978;5.654;2023-04-15T13:06:25;14.9;48.6
79356;SHT31;68825;51.978;5.654;2023-04-15T13:08:54;14.9;48.1
79356;SHT31;68825;51.978;5.654;2023-04-15T13:11:23;14.8;49.1
79356;SHT31;68825;51.978;5.654;2023-04-15T13:13:52;14.9;48.7
79356;SHT31;68825;51.978;5.654;2023-04-15T13:16:20;14.9;48.6
79356;SHT31;68825;51.978;5.654;2023-04-15T13:18:50;14.8;49.2
79356;SHT31;68825;51.978;5.654;2023-04-15T13:21:19;14.8;48.4
79356;SHT31;68825;51.978;5.654;2023-04-15T13:23:49;14.8;49.7
79356;SHT31;68825;51.978;5.654;2023-04-15T13:26:20;14.8;50.5
79356;SHT31;68825;51.978;5.654;2023-04-15T13:28:48;14.8;49.7
79356;SHT31;68825;51.978;5.654;2023-04-15T13:31:18;14.7;50.4
79356;SHT31;68825;51.978;5.654;2023-04-15T13:33:46;14.7;50.3
79356;SHT31;68825;51.978;5.654;2023-04-15T13:36:15;14.7;50.7
79356;SHT31;68825;51.978;5.654;2023-04-15T13:38:44;14.7;50.8
79356;SHT31;68825;51.978;5.654;2023-04-15T13:41:12;14.7;52.3
79356;SHT31;68825;51.978;5.654;2023-04-15T13:43:41;14.7;50.8
79356;SHT31;68825;51.978;5.654;2023-04-15T13:46:09;14.7;49.4
79356;SHT31;68825;51.978;5.654;2023-04-15T13:48:38;14.7;49.7
79356;SHT31;68825;51.978;5.654;2023-04-15T13:51:09;14.6;51.1
79356;SHT31;68825;51.978;5.654;2023-04-15T13:53:37;14.6;49.6
79356;SHT31;68825;51.978;5.654;2023-04-15T13:56:07;14.6;49.4
79356;SHT31;68825;51.978;5.654;2023-04-15T13:58:37;14.5;50.6
79356;SHT31;68825;51.978;5.654;2023-04-15T14:01:05;14.5;49.9
79356;SHT31;68825;51.978;5.654;2023-04-15T14:03:34;14.4;51.3
79356;SHT31;68825;51.978;5.654;2023-04-15T14:06:03;14.4;51.7
79356;SHT31;68825;51.978;5.654;2023-04-15T14:08:32;14.4;51.7
79356;SHT31;68825;51.978;5.654;2023-04-15T14:11:01;14.4;50.6
79356;SHT31;68825;51.978;5.654;2023-04-15T14:13:29;14.4;51.5
79356;SHT31;68825;51.978;5.654;2023-04-15T14:15:58;14.4;52.4
79356;SHT31;68825;51.978;5.654;2023-04-15T14:18:31;14.3;52.8
79356;SHT31;68825;51.978;5.654;2023-04-15T14:21:00;14.3;52.6
79356;SHT31;68825;51.978;5.654;2023-04-15T14:23:29;14.2;52.9
79356;SHT31;68825;51.978;5.654;2023-04-15T14:25:57;14.1;53.1
79356;SHT31;68825;51.978;5.654;2023-04-15T14:28:26;14.1;52.4
79356;SHT31;68825;51.978;5.654;2023-04-15T14:30:54;14.0;52.6
79356;SHT31;68825;51.978;5.654;2023-04-15T14:33:23;13.9;53.0
79356;SHT31;68825;51.978;5.654;2023-04-15T14:35:52;13.9;53.1
79356;SHT31;68825;51.978;5.654;2023-04-15T14:38:20;13.8;53.8
79356;SHT31;68825;51.978;5.654;2023-04-15T14:40:50;13.8;53.9
79356;SHT31;68825;51.978;5.654;2023-04-15T14:43:19;13.7;54.1
79356;SHT31;68825;51.978;5.654;2023-04-15T14:45:49;13.6;54.6
79356;SHT31;68825;51.978;5.654;2023-04-15T14:48:19;13.6;55.1
79356;SHT31;68825;51.978;5.654;2023-04-15T14:50:48;13.5;54.7
79356;SHT31;68825;51.978;5.654;2023-04-15T14:53:16;13.5;54.7
79356;SHT31;68825;51.978;5.654;2023-04-15T14:55:45;13.4;54.5
79356;SHT31;68825;51.978;5.654;2023-04-15T14:58:14;13.3;54.4
79356;SHT31;68825;51.978;5.654;2023-04-15T15:00:44;13.3;54.6
79356;SHT31;68825;51.978;5.654;2023-04-15T15:03:12;13.2;54.8
79356;SHT31;68825;51.978;5.654;2023-04-15T15:05:44;13.2;55.6
79356;SHT31;68825;51.978;5.654;2023-04-15T15:08:12;13.1;55.7
79356;SHT31;68825;51.978;5.654;2023-04-15T15:10:41;13.1;55.8
79356;SHT31;68825;51.978;5.654;2023-04-15T15:13:10;13.1;56.2
79356;SHT31;68825;51.978;5.654;2023-04-15T15:15:38;13.0;56.4
79356;SHT31;68825;51.978;5.654;2023-04-15T15:18:07;13.0;56.8
79356;SHT31;68825;51.978;5.654;2023-04-15T15:20:37;12.9;56.9
79356;SHT31;68825;51.978;5.654;2023-04-15T15:23:05;12.9;57.3
79356;SHT31;68825;51.978;5.654;2023-04-15T15:25:34;12.9;57.9
79356;SHT31;68825;51.978;5.654;2023-04-15T15:28:05;12.8;57.8
79356;SHT31;68825;51.978;5.654;2023-04-15T15:30:34;12.8;57.7
79356;SHT31;68825;51.978;5.654;2023-04-15T15:33:02;12.8;57.9
79356;SHT31;68825;51.978;5.654;2023-04-15T15:35:31;12.7;57.1
79356;SHT31;68825;51.978;5.654;2023-04-15T15:38:00;12.7;57.2
79356;SHT31;68825;51.978;5.654;2023-04-15T15:40:29;12.7;57.5
79356;SHT31;68825;51.978;5.654;2023-04-15T15:42:59;12.7;57.7
79356;SHT31;68825;51.978;5.654;2023-04-15T15:45:27;12.7;58.0
79356;SHT31;68825;51.978;5.654;2023-04-15T15:47:56;12.7;57.5
79356;SHT31;68825;51.978;5.654;2023-04-15T15:50:27;12.6;57.4
79356;SHT31;68825;51.978;5.654;2023-04-15T15:52:56;12.6;57.5
79356;SHT31;68825;51.978;5.654;2023-04-15T15:55:25;12.6;57.2
79356;SHT31;68825;51.978;5.654;2023-04-15T15:57:54;12.5;57.8
79356;SHT31;68825;51.978;5.654;2023-04-15T16:00:23;12.5;57.8
79356;SHT31;68825;51.978;5.654;2023-04-15T16:02:54;12.4;58.0
79356;SHT31;68825;51.978;5.654;2023-04-15T16:05:24;12.4;58.1
79356;SHT31;68825;51.978;5.654;2023-04-15T16:07:52;12.4;58.4
79356;SHT31;68825;51.978;5.654;2023-04-15T16:10:21;12.4;58.1
79356;SHT31;68825;51.978;5.654;2023-04-15T16:12:51;12.4;58.3
79356;SHT31;68825;51.978;5.654;2023-04-15T16:15:21;12.3;58.8
79356;SHT31;68825;51.978;5.654;2023-04-15T16:17:50;12.3;59.1
79356;SHT31;68825;51.978;5.654;2023-04-15T16:20:18;12.2;58.7
79356;SHT31;68825;51.978;5.654;2023-04-15T16:22:47;12.2;59.3